sensor_id;sensor_type;location;lat;lon;timestamp;temperature;humidity
50162;DHT22;36061;48.116;11.612;2022-07-09T05:02:40;14.80;99.90
50162;DHT22;36061;48.116;11.612;2022-07-09T05:05:06;14.80;99.90
50162;DHT22;36061;48.116;11.612;2022-07-09T05:07:33;14.90;99.90
50162;DHT22;36061;48.116;11.612;2022-07-09T05:10:00;14.90;99.90
50162;DHT22;36061;48.116;11.612;2022-07-09T05:12:27;14.90;99.90
50162;DHT22;36061;48.116;11.612;2022-07-09T05:14:53;14.90;99.90
50162;DHT22;36061;48.116;11.612;2022-07-09T05:17:20;14.90;99.90
50162;DHT22;36061;48.116;11.612;2022-07-09T05:19:46;14.90;99.90
50162;DHT22;36061;48.116;11.612;2022-07-09T05:22:11;14.90;99.90
50162;DHT22;36061;48.116;11.612;2022-07-09T05:24:37;14.90;99.90
50162;DHT22;36061;48.116;11.612;2022-07-09T05:27:03;14.90;99.90
50162;DHT22;36061;48.116;11.612;2022-07-09T05:29:30;15.00;99.90
50162;DHT22;36061;48.116;11.612;2022-07-09T05:31:55;15.00;99.90
50162;DHT22;36061;48.116;11.612;2022-07-09T05:34:24;15.00;99.90
50162;DHT22;36061;48.116;11.612;2022-07-09T05:36:49;15.10;99.90
50162;DHT22;36061;48.116;11.612;2022-07-09T05:39:18;15.10;99.90
50162;DHT22;36061;48.116;11.612;2022-07-09T05:41:44;15.20;99.90
50162;DHT22;36061;48.116;11.612;2022-07-09T05:44:10;15.20;99.90
50162;DHT22;36061;48.116;11.612;2022-07-09T05:46:35;15.30;99.90
50162;DHT22;36061;48.116;11.612;2022-07-09T05:49:02;15.30;99.90
50162;DHT22;36061;48.116;11.612;2022-07-09T05:51:28;15.30;99.90
50162;DHT22;36061;48.116;11.612;2022-07-09T05:53:54;15.40;99.90
50162;DHT22;36061;48.116;11.612;2022-07-09T05:56:21;15.40;99.90
50162;DHT22;36061;48.116;11.612;2022-07-09T05:58:47;15.50;99.90
50162;DHT22;36061;48.116;11.612;2022-07-09T06:01:13;15.50;99.90
50162;DHT22;36061;48.116;11.612;2022-07-09T06:03:40;15.60;99.90
50162;DHT22;36061;48.116;11.612;2022-07-09T06:06:06;15.60;99.90
50162;DHT22;36061;48.116;11.612;2022-07-09T06:08:32;15.70;99.90
50162;DHT22;36061;48.116;11.612;2022-07-09T06:10:59;15.70;99.90
50162;DHT22;36061;48.116;11.612;2022-07-09T06:13:25;15.80;99.90
50162;DHT22;36061;48.116;11.612;2022-07-09T06:15:52;15.80;99.90
50162;DHT22;36061;48.116;11.612;2022-07-09T06:18:18;15.90;99.90
50162;DHT22;36061;48.116;11.612;2022-07-09T06:20:44;15.90;99.90
50162;DHT22;36061;48.116;11.612;2022-07-09T06:23:11;15.90;99.90
50162;DHT22;36061;48.116;11.612;2022-07-09T06:25:38;16.00;99.90
50162;DHT22;36061;48.116;11.612;2022-07-09T06:28:04;16.00;99.90
50162;DHT22;36061;48.116;11.612;2022-07-09T06:30:30;16.10;99.90
50162;DHT22;36061;48.116;11.612;2022-07-09T06:32:56;16.10;99.90
50162;DHT22;36061;48.116;11.612;2022-07-09T06:35:22;16.20;99.90
50162;DHT22;36061;48.116;11.612;2022-07-09T06:37:48;16.30;99.90
50162;DHT22;36061;48.116;11.612;2022-07-09T06:40:14;16.30;99.90
50162;DHT22;36061;48.116;11.612;2022-07-09T06:42:40;16.30;99.90
50162;DHT22;36061;48.116;11.612;2022-07-09T06:45:16;16.30;99.90
50162;DHT22;36061;48.116;11.612;2022-07-09T06:47:42;16.40;99.90
50162;DHT22;36061;48.116;11.612;2022-07-09T06:50:08;16.40;99.90
50162;DHT22;36061;48.116;11.612;2022-07-09T06:52:34;16.50;99.90
50162;DHT22;36061;48.116;11.612;2022-07-09T06:54:59;16.50;99.90
50162;DHT22;36061;48.116;11.612;2022-07-09T06:57:25;16.60;99.90
50162;DHT22;36061;48.116;11.612;2022-07-09T06:59:51;16.60;99.90
50162;DHT22;36061;48.116;11.612;2022-07-09T07:02:17;16.60;99.90
50162;DHT22;36061;48.116;11.612;2022-07-09T07:04:43;16.70;99.90
50162;DHT22;36061;48.116;11.612;2022-07-09T07:07:09;16.70;99.90
50162;DHT22;36061;48.116;11.612;2022-07-09T07:09:34;16.70;99.90
50162;DHT22;36061;48.116;11.612;2022-07-09T07:12:01;16.80;99.90
50162;DHT22;36061;48.116;11.612;2022-07-09T07:14:27;16.80;99.90
50162;DHT22;36061;48.116;11.612;2022-07-09T07:16:52;16.80;99.90
50162;DHT22;36061;48.116;11.612;2022-07-09T07:19:19;16.80;99.90
50162;DHT22;36061;48.116;11.612;2022-07-09T07:21:48;16.80;99.90
50162;DHT22;36061;48.116;11.612;2022-07-09T07:24:14;16.90;99.90
50162;DHT22;36061;48.116;11.612;2022-07-09T07:26:40;16.90;99.90
50162;DHT22;36061;48.116;11.612;2022-07-09T07:29:06;17.00;99.90
50162;DHT22;36061;48.116;11.612;2022-07-09T07:31:32;17.00;99.90
50162;DHT22;36061;48.116;11.612;2022-07-09T07:33:58;17.00;99.90
50162;DHT22;36061;48.116;11.612;2022-07-09T07:36:26;17.10;99.90
50162;DHT22;36061;48.116;11.612;2022-07-09T07:38:52;17.10;99.90
50162;DHT22;36061;48.116;11.612;2022-07-09T07:41:18;17.20;99.90
50162;DHT22;36061;48.116;11.612;2022-07-09T07:43:44;17.20;99.90
50162;DHT22;36061;48.116;11.612;2022-07-09T07:46:11;17.20;99.90
50162;DHT22;36061;48.116;11.612;2022-07-09T07:48:37;17.20;99.90
50162;DHT22;36061;48.116;11.612;2022-07-09T07:51:03;17.20;99.90
50162;DHT22;36061;48.116;11.612;2022-07-09T07:53:30;17.20;99.90
50162;DHT22;36061;48.116;11.612;2022-07-09T07:55:57;17.30;99.90
50162;DHT22;36061;48.116;11.612;2022-07-09T07:58:23;17.30;99.90
50162;DHT22;36061;48.116;11.612;2022-07-09T08:00:49;17.40;99.90
50162;DHT22;36061;48.116;11.612;2022-07-09T08:03:14;17.40;99.90
50162;DHT22;36061;48.116;11.612;2022-07-09T08:05:40;17.50;99.90
50162;DHT22;36061;48.116;11.612;2022-07-09T08:08:06;17.50;99.90
50162;DHT22;36061;48.116;11.612;2022-07-09T08:10:32;17.60;99.90
50162;DHT22;36061;48.116;11.612;2022-07-09T08:12:58;17.70;99.90
50162;DHT22;36061;48.116;11.612;2022-07-09T08:15:23;17.80;99.90
50162;DHT22;36061;48.116;11.612;2022-07-09T08:17:49;17.90;99.90
50162;DHT22;36061;48.116;11.612;2022-07-09T08:20:15;18.00;99.90
50162;DHT22;36061;48.116;11.612;2022-07-09T08:22:41;18.10;99.90
50162;DHT22;36061;48.116;11.612;2022-07-09T08:25:07;18.10;99.90
50162;DHT22;36061;48.116;11.612;2022-07-09T08:27:32;18.20;99.90
50162;DHT22;36061;48.116;11.612;2022-07-09T08:29:58;18.30;99.40
50162;DHT22;36061;48.116;11.612;2022-07-09T08:32:24;18.40;98.60
50162;DHT22;36061;48.116;11.612;2022-07-09T08:34:50;18.40;99.10
50162;DHT22;36061;48.116;11.612;2022-07-09T08:37:16;18.50;98.90
50162;DHT22;36061;48.116;11.612;2022-07-09T08:39:42;18.60;98.60
50162;DHT22;36061;48.116;11.612;2022-07-09T08:42:09;18.70;97.70
50162;DHT22;36061;48.116;11.612;2022-07-09T08:44:42;18.90;96.60
50162;DHT22;36061;48.116;11.612;2022-07-09T08:47:10;19.10;95.60
50162;DHT22;36061;48.116;11.612;2022-07-09T08:49:37;19.30;95.30
50162;DHT22;36061;48.116;11.612;2022-07-09T08:52:03;19.30;95.10
50162;DHT22;36061;48.116;11.612;2022-07-09T08:54:31;19.40;95.00
50162;DHT22;36061;48.116;11.612;2022-07-09T08:56:58;19.40;95.10
50162;DHT22;36061;48.116;11.612;2022-07-09T08:59:24;19.40;94.10
50162;DHT22;36061;48.116;11.612;2022-07-09T09:01:50;19.40;94.40
50162;DHT22;36061;48.116;11.612;2022-07-09T09:04:17;19.30;94.20
50162;DHT22;36061;48.116;11.612;2022-07-09T09:06:43;19.30;94.20
50162;DHT22;36061;48.116;11.612;2022-07-09T09:09:09;19.30;93.90
50162;DHT22;36061;48.116;11.612;2022-07-09T09:11:37;19.30;94.10
50162;DHT22;36061;48.116;11.612;2022-07-09T09:14:03;19.40;93.60
50162;DHT22;36061;48.116;11.612;2022-07-09T09:16:29;19.50;93.20
50162;DHT22;36061;48.116;11.612;2022-07-09T09:18:55;19.60;93.00
50162;DHT22;36061;48.116;11.612;2022-07-09T09:21:23;19.70;93.30
50162;DHT22;36061;48.116;11.612;2022-07-09T09:23:54;19.80;93.00
50162;DHT22;36061;48.116;11.612;2022-07-09T09:26:23;19.90;92.70
50162;DHT22;36061;48.116;11.612;2022-07-09T09:31:25;20.10;92.20
50162;DHT22;36061;48.116;11.612;2022-07-09T09:33:56;20.10;90.80
50162;DHT22;36061;48.116;11.612;2022-07-09T09:36:36;20.20;91.40
50162;DHT22;36061;48.116;11.612;2022-07-09T09:39:27;20.30;90.80
50162;DHT22;36061;48.116;11.612;2022-07-09T09:42:01;20.30;90.60
50162;DHT22;36061;48.116;11.612;2022-07-09T09:44:33;20.40;90.60
50162;DHT22;36061;48.116;11.612;2022-07-09T09:47:07;20.50;90.70
50162;DHT22;36061;48.116;11.612;2022-07-09T09:49:34;20.60;88.10
50162;DHT22;36061;48.116;11.612;2022-07-09T09:52:08;20.60;87.70
50162;DHT22;36061;48.116;11.612;2022-07-09T09:54:36;20.70;87.60
50162;DHT22;36061;48.116;11.612;2022-07-09T09:57:06;20.70;87.90
50162;DHT22;36061;48.116;11.612;2022-07-09T09:59:34;20.80;88.70
50162;DHT22;36061;48.116;11.612;2022-07-09T10:02:04;21.00;86.80
50162;DHT22;36061;48.116;11.612;2022-07-09T10:04:32;21.00;86.20
50162;DHT22;36061;48.116;11.612;2022-07-09T10:06:59;21.10;86.50
50162;DHT22;36061;48.116;11.612;2022-07-09T10:09:25;21.10;84.70
50162;DHT22;36061;48.116;11.612;2022-07-09T10:11:50;21.10;85.10
50162;DHT22;36061;48.116;11.612;2022-07-09T10:17:15;21.10;85.30
50162;DHT22;36061;48.116;11.612;2022-07-09T10:20:02;21.10;83.10
50162;DHT22;36061;48.116;11.612;2022-07-09T10:22:40;21.20;82.10
50162;DHT22;36061;48.116;11.612;2022-07-09T10:25:21;21.20;80.40
50162;DHT22;36061;48.116;11.612;2022-07-09T10:27:48;21.30;80.90
50162;DHT22;36061;48.116;11.612;2022-07-09T10:30:33;21.30;81.70
50162;DHT22;36061;48.116;11.612;2022-07-09T10:33:11;21.30;80.50
50162;DHT22;36061;48.116;11.612;2022-07-09T10:35:43;21.30;81.20
50162;DHT22;36061;48.116;11.612;2022-07-09T10:38:10;21.30;81.00
50162;DHT22;36061;48.116;11.612;2022-07-09T10:43:05;21.20;82.30
50162;DHT22;36061;48.116;11.612;2022-07-09T10:48:01;21.20;81.90
50162;DHT22;36061;48.116;11.612;2022-07-09T10:50:28;21.10;82.40
50162;DHT22;36061;48.116;11.612;2022-07-09T10:52:54;21.10;81.70
50162;DHT22;36061;48.116;11.612;2022-07-09T10:55:25;21.20;82.80
50162;DHT22;36061;48.116;11.612;2022-07-09T10:57:51;21.30;82.80
50162;DHT22;36061;48.116;11.612;2022-07-09T11:00:19;21.40;83.40
50162;DHT22;36061;48.116;11.612;2022-07-09T11:03:11;21.60;82.20
50162;DHT22;36061;48.116;11.612;2022-07-09T11:05:46;21.70;82.00
50162;DHT22;36061;48.116;11.612;2022-07-09T11:08:12;21.70;80.60
50162;DHT22;36061;48.116;11.612;2022-07-09T11:10:39;21.60;81.60
50162;DHT22;36061;48.116;11.612;2022-07-09T11:13:06;21.60;81.30
50162;DHT22;36061;48.116;11.612;2022-07-09T11:15:33;21.70;80.30
50162;DHT22;36061;48.116;11.612;2022-07-09T11:20:31;21.80;78.80
50162;DHT22;36061;48.116;11.612;2022-07-09T11:22:58;21.90;78.20
50162;DHT22;36061;48.116;11.612;2022-07-09T11:25:27;22.00;77.20
50162;DHT22;36061;48.116;11.612;2022-07-09T11:27:57;22.10;76.20
50162;DHT22;36061;48.116;11.612;2022-07-09T11:30:24;22.20;77.00
50162;DHT22;36061;48.116;11.612;2022-07-09T11:32:50;22.30;76.50
50162;DHT22;36061;48.116;11.612;2022-07-09T11:35:31;22.30;76.40
50162;DHT22;36061;48.116;11.612;2022-07-09T11:38:01;22.30;75.90
50162;DHT22;36061;48.116;11.612;2022-07-09T11:40:29;22.30;75.40
50162;DHT22;36061;48.116;11.612;2022-07-09T11:42:55;22.30;74.60
50162;DHT22;36061;48.116;11.612;2022-07-09T11:45:29;22.30;75.10
50162;DHT22;36061;48.116;11.612;2022-07-09T11:48:05;22.30;76.20
50162;DHT22;36061;48.116;11.612;2022-07-09T11:50:32;22.30;76.00
50162;DHT22;36061;48.116;11.612;2022-07-09T11:52:58;22.20;74.60
50162;DHT22;36061;48.116;11.612;2022-07-09T11:55:31;22.20;74.10
50162;DHT22;36061;48.116;11.612;2022-07-09T11:58:07;22.20;71.00
50162;DHT22;36061;48.116;11.612;2022-07-09T12:00:34;22.20;72.00
50162;DHT22;36061;48.116;11.612;2022-07-09T12:03:01;22.30;72.60
50162;DHT22;36061;48.116;11.612;2022-07-09T12:05:32;22.40;70.10
50162;DHT22;36061;48.116;11.612;2022-07-09T12:08:00;22.30;70.20
50162;DHT22;36061;48.116;11.612;2022-07-09T12:10:30;22.30;71.20
50162;DHT22;36061;48.116;11.612;2022-07-09T12:12:58;22.40;73.90
50162;DHT22;36061;48.116;11.612;2022-07-09T12:15:25;22.50;75.80
50162;DHT22;36061;48.116;11.612;2022-07-09T12:17:53;22.50;75.80
50162;DHT22;36061;48.116;11.612;2022-07-09T12:20:24;22.60;75.20
50162;DHT22;36061;48.116;11.612;2022-07-09T12:22:50;22.70;75.30
50162;DHT22;36061;48.116;11.612;2022-07-09T12:25:17;22.70;73.30
50162;DHT22;36061;48.116;11.612;2022-07-09T12:27:43;22.80;72.90
50162;DHT22;36061;48.116;11.612;2022-07-09T12:30:10;22.80;71.90
50162;DHT22;36061;48.116;11.612;2022-07-09T12:32:35;22.80;71.90
50162;DHT22;36061;48.116;11.612;2022-07-09T12:35:02;22.80;72.80
50162;DHT22;36061;48.116;11.612;2022-07-09T12:37:28;22.80;72.10
50162;DHT22;36061;48.116;11.612;2022-07-09T12:39:54;22.90;71.90
50162;DHT22;36061;48.116;11.612;2022-07-09T12:42:20;22.90;71.70
50162;DHT22;36061;48.116;11.612;2022-07-09T12:44:47;22.90;71.60
50162;DHT22;36061;48.116;11.612;2022-07-09T12:47:13;22.90;71.10
50162;DHT22;36061;48.116;11.612;2022-07-09T12:49:39;22.90;71.40
50162;DHT22;36061;48.116;11.612;2022-07-09T12:52:05;22.90;70.60
50162;DHT22;36061;48.116;11.612;2022-07-09T12:54:30;22.90;70.60
50162;DHT22;36061;48.116;11.612;2022-07-09T12:56:56;22.90;70.40
50162;DHT22;36061;48.116;11.612;2022-07-09T12:59:22;22.90;69.60
50162;DHT22;36061;48.116;11.612;2022-07-09T13:01:48;22.90;69.50
50162;DHT22;36061;48.116;11.612;2022-07-09T13:04:14;22.80;69.70
50162;DHT22;36061;48.116;11.612;2022-07-09T13:06:43;22.80;70.70
50162;DHT22;36061;48.116;11.612;2022-07-09T13:09:10;22.80;70.00
50162;DHT22;36061;48.116;11.612;2022-07-09T13:11:37;22.80;70.00
50162;DHT22;36061;48.116;11.612;2022-07-09T13:14:03;22.80;70.70
50162;DHT22;36061;48.116;11.612;2022-07-09T13:16:29;22.90;68.80
50162;DHT22;36061;48.116;11.612;2022-07-09T13:18:55;22.90;69.30
50162;DHT22;36061;48.116;11.612;2022-07-09T13:21:22;23.00;70.10
50162;DHT22;36061;48.116;11.612;2022-07-09T13:23:49;23.00;67.50
50162;DHT22;36061;48.116;11.612;2022-07-09T13:26:16;23.00;68.20
50162;DHT22;36061;48.116;11.612;2022-07-09T13:28:42;23.10;67.20
50162;DHT22;36061;48.116;11.612;2022-07-09T13:31:08;23.10;66.60
50162;DHT22;36061;48.116;11.612;2022-07-09T13:33:35;23.00;67.90
50162;DHT22;36061;48.116;11.612;2022-07-09T13:36:03;23.00;68.30
50162;DHT22;36061;48.116;11.612;2022-07-09T13:38:30;23.00;69.30
50162;DHT22;36061;48.116;11.612;2022-07-09T13:40:56;23.00;69.80
50162;DHT22;36061;48.116;11.612;2022-07-09T13:43:22;23.00;69.90
50162;DHT22;36061;48.116;11.612;2022-07-09T13:45:53;23.00;69.40
50162;DHT22;36061;48.116;11.612;2022-07-09T13:48:20;23.00;69.90
50162;DHT22;36061;48.116;11.612;2022-07-09T13:50:46;22.90;69.10
50162;DHT22;36061;48.116;11.612;2022-07-09T13:53:12;22.90;69.00
50162;DHT22;36061;48.116;11.612;2022-07-09T13:55:38;22.80;69.40
50162;DHT22;36061;48.116;11.612;2022-07-09T13:58:03;22.80;69.10
50162;DHT22;36061;48.116;11.612;2022-07-09T14:00:29;22.80;69.50
50162;DHT22;36061;48.116;11.612;2022-07-09T14:02:55;22.80;69.00
50162;DHT22;36061;48.116;11.612;2022-07-09T14:05:21;22.80;68.30
50162;DHT22;36061;48.116;11.612;2022-07-09T14:07:47;22.80;69.00
50162;DHT22;36061;48.116;11.612;2022-07-09T14:10:13;22.70;68.30
50162;DHT22;36061;48.116;11.612;2022-07-09T14:12:39;22.70;68.80
50162;DHT22;36061;48.116;11.612;2022-07-09T14:15:05;22.70;69.10
50162;DHT22;36061;48.116;11.612;2022-07-09T14:17:31;22.80;68.90
50162;DHT22;36061;48.116;11.612;2022-07-09T14:19:57;22.80;69.30
50162;DHT22;36061;48.116;11.612;2022-07-09T14:22:26;22.70;70.00
50162;DHT22;36061;48.116;11.612;2022-07-09T14:24:51;22.70;70.10
50162;DHT22;36061;48.116;11.612;2022-07-09T14:27:17;22.80;70.50
50162;DHT22;36061;48.116;11.612;2022-07-09T14:29:44;22.80;70.60
50162;DHT22;36061;48.116;11.612;2022-07-09T14:32:10;22.90;69.70
50162;DHT22;36061;48.116;11.612;2022-07-09T14:34:36;23.00;69.40
50162;DHT22;36061;48.116;11.612;2022-07-09T14:37:02;23.10;70.40
50162;DHT22;36061;48.116;11.612;2022-07-09T14:39:27;23.20;70.50
50162;DHT22;36061;48.116;11.612;2022-07-09T14:41:54;23.20;70.30
50162;DHT22;36061;48.116;11.612;2022-07-09T14:44:19;23.20;70.80
50162;DHT22;36061;48.116;11.612;2022-07-09T14:46:45;23.30;69.80
50162;DHT22;36061;48.116;11.612;2022-07-09T14:49:11;23.20;69.80
50162;DHT22;36061;48.116;11.612;2022-07-09T14:51:38;23.20;68.50
50162;DHT22;36061;48.116;11.612;2022-07-09T14:54:04;23.20;68.60
50162;DHT22;36061;48.116;11.612;2022-07-09T14:56:30;23.00;68.60
50162;DHT22;36061;48.116;11.612;2022-07-09T14:58:56;22.90;69.10
50162;DHT22;36061;48.116;11.612;2022-07-09T15:01:22;22.90;69.80
50162;DHT22;36061;48.116;11.612;2022-07-09T15:03:48;22.80;70.00
50162;DHT22;36061;48.116;11.612;2022-07-09T15:06:14;22.80;70.10
50162;DHT22;36061;48.116;11.612;2022-07-09T15:08:40;22.70;69.50
50162;DHT22;36061;48.116;11.612;2022-07-09T15:11:06;22.70;69.10
50162;DHT22;36061;48.116;11.612;2022-07-09T15:13:32;22.60;69.20
50162;DHT22;36061;48.116;11.612;2022-07-09T15:15:58;22.60;68.60
50162;DHT22;36061;48.116;11.612;2022-07-09T15:18:24;22.50;69.00
50162;DHT22;36061;48.116;11.612;2022-07-09T15:20:50;22.50;69.50
50162;DHT22;36061;48.116;11.612;2022-07-09T15:23:16;22.50;70.30
50162;DHT22;36061;48.116;11.612;2022-07-09T15:25:42;22.50;70.80
50162;DHT22;36061;48.116;11.612;2022-07-09T15:28:07;22.60;71.00
50162;DHT22;36061;48.116;11.612;2022-07-09T15:30:33;22.70;71.30
50162;DHT22;36061;48.116;11.612;2022-07-09T15:32:59;22.80;70.90
50162;DHT22;36061;48.116;11.612;2022-07-09T15:35:25;22.80;71.20
50162;DHT22;36061;48.116;11.612;2022-07-09T15:37:51;22.80;71.60
50162;DHT22;36061;48.116;11.612;2022-07-09T15:40:17;22.90;71.90
50162;DHT22;36061;48.116;11.612;2022-07-09T15:42:45;22.90;71.20
50162;DHT22;36061;48.116;11.612;2022-07-09T15:45:15;22.80;71.30
50162;DHT22;36061;48.116;11.612;2022-07-09T15:47:43;22.80;71.30
50162;DHT22;36061;48.116;11.612;2022-07-09T15:50:10;22.70;71.20
50162;DHT22;36061;48.116;11.612;2022-07-09T15:52:36;22.70;71.50
50162;DHT22;36061;48.116;11.612;2022-07-09T15:55:08;22.60;72.00
50162;DHT22;36061;48.116;11.612;2022-07-09T15:57:35;22.60;71.70
50162;DHT22;36061;48.116;11.612;2022-07-09T16:00:03;22.70;71.00
50162;DHT22;36061;48.116;11.612;2022-07-09T16:02:30;22.70;70.20
50162;DHT22;36061;48.116;11.612;2022-07-09T16:04:56;22.70;70.20
50162;DHT22;36061;48.116;11.612;2022-07-09T16:07:22;22.70;70.10
50162;DHT22;36061;48.116;11.612;2022-07-09T16:09:47;22.70;69.70
50162;DHT22;36061;48.116;11.612;2022-07-09T16:12:14;22.60;70.40
50162;DHT22;36061;48.116;11.612;2022-07-09T16:14:58;22.60;70.20
50162;DHT22;36061;48.116;11.612;2022-07-09T16:17:24;22.60;70.70
50162;DHT22;36061;48.116;11.612;2022-07-09T16:19:50;22.60;71.00
50162;DHT22;36061;48.116;11.612;2022-07-09T16:22:16;22.60;70.40
50162;DHT22;36061;48.116;11.612;2022-07-09T16:24:43;22.60;70.60
50162;DHT22;36061;48.116;11.612;2022-07-09T16:27:10;22.60;71.10
50162;DHT22;36061;48.116;11.612;2022-07-09T16:29:36;22.60;71.30
50162;DHT22;36061;48.116;11.612;2022-07-09T16:32:03;22.60;71.20
50162;DHT22;36061;48.116;11.612;2022-07-09T16:34:28;22.60;70.80
50162;DHT22;36061;48.116;11.612;2022-07-09T16:36:58;22.60;70.70
50162;DHT22;36061;48.116;11.612;2022-07-09T16:39:24;22.70;70.10
50162;DHT22;36061;48.116;11.612;2022-07-09T16:41:51;22.70;69.70
50162;DHT22;36061;48.116;11.612;2022-07-09T16:44:17;22.60;70.10
50162;DHT22;36061;48.116;11.612;2022-07-09T16:46:43;22.50;69.90
50162;DHT22;36061;48.116;11.612;2022-07-09T16:49:09;22.50;70.20
50162;DHT22;36061;48.116;11.612;2022-07-09T16:51:35;22.50;70.50
50162;DHT22;36061;48.116;11.612;2022-07-09T16:54:00;22.40;70.80
50162;DHT22;36061;48.116;11.612;2022-07-09T16:56:26;22.40;71.10
50162;DHT22;36061;48.116;11.612;2022-07-09T16:58:53;22.40;71.50
50162;DHT22;36061;48.116;11.612;2022-07-09T17:01:18;22.40;71.50
50162;DHT22;36061;48.116;11.612;2022-07-09T17:03:44;22.30;71.30
50162;DHT22;36061;48.116;11.612;2022-07-09T17:06:10;22.30;71.50
50162;DHT22;36061;48.116;11.612;2022-07-09T17:08:36;22.30;71.10
50162;DHT22;36061;48.116;11.612;2022-07-09T17:11:02;22.30;71.30
50162;DHT22;36061;48.116;11.612;2022-07-09T17:13:27;22.30;71.30
50162;DHT22;36061;48.116;11.612;2022-07-09T17:15:53;22.30;71.50
50162;DHT22;36061;48.116;11.612;2022-07-09T17:18:19;22.30;71.70
50162;DHT22;36061;48.116;11.612;2022-07-09T17:20:47;22.30;71.30
50162;DHT22;36061;48.116;11.612;2022-07-09T17:23:14;22.30;71.10
50162;DHT22;36061;48.116;11.612;2022-07-09T17:25:40;22.20;71.10
50162;DHT22;36061;48.116;11.612;2022-07-09T17:28:06;22.20;71.50
50162;DHT22;36061;48.116;11.612;2022-07-09T17:30:32;22.20;71.60
50162;DHT22;36061;48.116;11.612;2022-07-09T17:32:57;22.20;71.80
50162;DHT22;36061;48.116;11.612;2022-07-09T17:35:24;22.20;72.10
50162;DHT22;36061;48.116;11.612;2022-07-09T17:37:52;22.10;72.30
50162;DHT22;36061;48.116;11.612;2022-07-09T17:40:17;22.10;72.40
50162;DHT22;36061;48.116;11.612;2022-07-09T17:42:45;22.10;72.20
50162;DHT22;36061;48.116;11.612;2022-07-09T17:45:11;22.10;72.40
50162;DHT22;36061;48.116;11.612;2022-07-09T17:47:37;22.00;72.10
50162;DHT22;36061;48.116;11.612;2022-07-09T17:50:03;22.00;72.20
50162;DHT22;36061;48.116;11.612;2022-07-09T17:52:29;22.00;72.00
50162;DHT22;36061;48.116;11.612;2022-07-09T17:54:55;21.90;72.10
50162;DHT22;36061;48.116;11.612;2022-07-09T17:57:41;21.90;71.90
50162;DHT22;36061;48.116;11.612;2022-07-09T18:00:08;21.90;72.20
50162;DHT22;36061;48.116;11.612;2022-07-09T18:02:35;21.90;72.60
50162;DHT22;36061;48.116;11.612;2022-07-09T18:05:01;21.80;72.60
50162;DHT22;36061;48.116;11.612;2022-07-09T18:07:26;21.80;73.00
50162;DHT22;36061;48.116;11.612;2022-07-09T18:09:52;21.80;72.90
50162;DHT22;36061;48.116;11.612;2022-07-09T18:12:18;21.80;73.30
50162;DHT22;36061;48.116;11.612;2022-07-09T18:14:44;21.80;73.40
50162;DHT22;36061;48.116;11.612;2022-07-09T18:17:09;21.80;73.40
50162;DHT22;36061;48.116;11.612;2022-07-09T18:19:35;21.70;73.50
50162;DHT22;36061;48.116;11.612;2022-07-09T18:22:01;21.70;73.90
50162;DHT22;36061;48.116;11.612;2022-07-09T18:24:27;21.70;74.20
50162;DHT22;36061;48.116;11.612;2022-07-09T18:26:53;21.70;74.30
50162;DHT22;36061;48.116;11.612;2022-07-09T18:29:19;21.60;74.30
50162;DHT22;36061;48.116;11.612;2022-07-09T18:31:45;21.60;74.60
50162;DHT22;36061;48.116;11.612;2022-07-09T18:34:10;21.60;74.80
50162;DHT22;36061;48.116;11.612;2022-07-09T18:36:36;21.50;74.90
50162;DHT22;36061;48.116;11.612;2022-07-09T18:39:02;21.50;75.10
50162;DHT22;36061;48.116;11.612;2022-07-09T18:41:28;21.50;75.40
50162;DHT22;36061;48.116;11.612;2022-07-09T18:43:54;21.50;75.60
50162;DHT22;36061;48.116;11.612;2022-07-09T18:46:20;21.40;75.70
50162;DHT22;36061;48.116;11.612;2022-07-09T18:48:46;21.40;75.90
50162;DHT22;36061;48.116;11.612;2022-07-09T18:51:12;21.40;76.00
50162;DHT22;36061;48.116;11.612;2022-07-09T18:53:37;21.40;76.20
50162;DHT22;36061;48.116;11.612;2022-07-09T18:56:04;21.40;76.60
50162;DHT22;36061;48.116;11.612;2022-07-09T18:58:29;21.30;76.30
50162;DHT22;36061;48.116;11.612;2022-07-09T19:00:55;21.40;76.50
50162;DHT22;36061;48.116;11.612;2022-07-09T19:03:21;21.30;76.40
50162;DHT22;36061;48.116;11.612;2022-07-09T19:05:47;21.30;76.70
50162;DHT22;36061;48.116;11.612;2022-07-09T19:08:13;21.30;76.80
50162;DHT22;36061;48.116;11.612;2022-07-09T19:10:39;21.30;77.20
50162;DHT22;36061;48.116;11.612;2022-07-09T19:13:04;21.20;77.30
50162;DHT22;36061;48.116;11.612;2022-07-09T19:15:30;21.20;77.50
50162;DHT22;36061;48.116;11.612;2022-07-09T19:17:56;21.20;77.80
50162;DHT22;36061;48.116;11.612;2022-07-09T19:20:22;21.10;77.90
50162;DHT22;36061;48.116;11.612;2022-07-09T19:22:48;21.10;78.20
50162;DHT22;36061;48.116;11.612;2022-07-09T19:25:14;21.10;78.60
50162;DHT22;36061;48.116;11.612;2022-07-09T19:27:39;21.00;78.60
50162;DHT22;36061;48.116;11.612;2022-07-09T19:30:06;21.00;78.70
50162;DHT22;36061;48.116;11.612;2022-07-09T19:32:33;21.00;79.00
50162;DHT22;36061;48.116;11.612;2022-07-09T19:35:17;20.90;79.30
50162;DHT22;36061;48.116;11.612;2022-07-09T19:37:43;20.90;79.50
50162;DHT22;36061;48.116;11.612;2022-07-09T19:40:09;20.80;79.60
50162;DHT22;36061;48.116;11.612;2022-07-09T19:42:35;20.80;79.80
50162;DHT22;36061;48.116;11.612;2022-07-09T19:45:01;20.80;79.90
50162;DHT22;36061;48.116;11.612;2022-07-09T19:47:26;20.70;80.00
50162;DHT22;36061;48.116;11.612;2022-07-09T19:49:53;20.70;80.20
50162;DHT22;36061;48.116;11.612;2022-07-09T19:52:18;20.70;80.50
50162;DHT22;36061;48.116;11.612;2022-07-09T19:54:44;20.60;80.70
50162;DHT22;36061;48.116;11.612;2022-07-09T19:57:10;20.60;81.00
50162;DHT22;36061;48.116;11.612;2022-07-09T19:59:36;20.60;81.30
50162;DHT22;36061;48.116;11.612;2022-07-09T20:02:02;20.60;81.40
50162;DHT22;36061;48.116;11.612;2022-07-09T20:04:28;20.60;81.80
50162;DHT22;36061;48.116;11.612;2022-07-09T20:06:54;20.60;82.20
50162;DHT22;36061;48.116;11.612;2022-07-09T20:09:20;20.60;82.50
50162;DHT22;36061;48.116;11.612;2022-07-09T20:11:45;20.60;82.60
50162;DHT22;36061;48.116;11.612;2022-07-09T20:14:11;20.50;82.60
50162;DHT22;36061;48.116;11.612;2022-07-09T20:16:37;20.50;82.90
50162;DHT22;36061;48.116;11.612;2022-07-09T20:19:05;20.50;83.20
50162;DHT22;36061;48.116;11.612;2022-07-09T20:21:32;20.50;83.30
50162;DHT22;36061;48.116;11.612;2022-07-09T20:23:58;20.50;83.50
50162;DHT22;36061;48.116;11.612;2022-07-09T20:26:23;20.50;83.80
50162;DHT22;36061;48.116;11.612;2022-07-09T20:28:49;20.50;84.00